sensor_id;sensor_type;location;lat;lon;timestamp;P1;durP1;ratioP1;P2;durP2;ratioP2
23578;SDS011;11967;50.852;4.400;2022-07-23T00:02:06;13.48;;;10.18;;
23578;SDS011;11967;50.852;4.400;2022-07-23T00:04:32;17.35;;;10.73;;
23578;SDS011;11967;50.852;4.400;2022-07-23T00:06:58;13.85;;;10.65;;
23578;SDS011;11967;50.852;4.400;2022-07-23T00:09:24;15.77;;;10.30;;
23578;SDS011;11967;50.852;4.400;2022-07-23T00:11:49;17.00;;;11.40;;
23578;SDS011;11967;50.852;4.400;2022-07-23T00:14:15;16.80;;;11.88;;
23578;SDS011;11967;50.852;4.400;2022-07-23T00:16:41;20.13;;;11.65;;
23578;SDS011;11967;50.852;4.400;2022-07-23T00:19:06;17.83;;;12.02;;
23578;SDS011;11967;50.852;4.400;2022-07-23T00:21:32;21.65;;;12.32;;
23578;SDS011;11967;50.852;4.400;2022-07-23T00:23:58;14.52;;;11.32;;
23578;SDS011;11967;50.852;4.400;2022-07-23T00:26:23;15.38;;;11.90;;
23578;SDS011;11967;50.852;4.400;2022-07-23T00:28:49;17.38;;;11.70;;
23578;SDS011;11967;50.852;4.400;2022-07-23T00:31:14;15.75;;;12.20;;
23578;SDS011;11967;50.852;4.400;2022-07-23T00:33:40;19.10;;;12.50;;
23578;SDS011;11967;50.852;4.400;2022-07-23T00:36:06;20.75;;;12.25;;
23578;SDS011;11967;50.852;4.400;2022-07-23T00:38:32;20.48;;;12.13;;
23578;SDS011;11967;50.852;4.400;2022-07-23T00:40:57;20.17;;;13.55;;
23578;SDS011;11967;50.852;4.400;2022-07-23T00:43:23;19.13;;;13.18;;
23578;SDS011;11967;50.852;4.400;2022-07-23T00:45:49;15.82;;;12.50;;
23578;SDS011;11967;50.852;4.400;2022-07-23T00:48:15;17.20;;;12.25;;
23578;SDS011;11967;50.852;4.400;2022-07-23T00:50:42;17.65;;;12.93;;
23578;SDS011;11967;50.852;4.400;2022-07-23T00:53:08;18.27;;;12.48;;
23578;SDS011;11967;50.852;4.400;2022-07-23T00:55:35;19.00;;;13.38;;
23578;SDS011;11967;50.852;4.400;2022-07-23T00:58:01;17.85;;;13.40;;
23578;SDS011;11967;50.852;4.400;2022-07-23T01:00:27;19.25;;;13.40;;
23578;SDS011;11967;50.852;4.400;2022-07-23T01:02:52;18.05;;;12.85;;
23578;SDS011;11967;50.852;4.400;2022-07-23T01:05:18;16.48;;;12.85;;
23578;SDS011;11967;50.852;4.400;2022-07-23T01:07:47;19.50;;;14.13;;
23578;SDS011;11967;50.852;4.400;2022-07-23T01:10:14;18.40;;;13.85;;
23578;SDS011;11967;50.852;4.400;2022-07-23T01:12:59;18.40;;;13.05;;
23578;SDS011;11967;50.852;4.400;2022-07-23T01:15:27;21.30;;;13.80;;
23578;SDS011;11967;50.852;4.400;2022-07-23T01:17:53;19.02;;;13.73;;
23578;SDS011;11967;50.852;4.400;2022-07-23T01:20:19;20.27;;;14.23;;
23578;SDS011;11967;50.852;4.400;2022-07-23T01:22:45;21.15;;;14.00;;
23578;SDS011;11967;50.852;4.400;2022-07-23T01:25:11;20.02;;;14.52;;
23578;SDS011;11967;50.852;4.400;2022-07-23T01:27:37;18.80;;;13.07;;
23578;SDS011;11967;50.852;4.400;2022-07-23T01:30:03;19.83;;;14.30;;
23578;SDS011;11967;50.852;4.400;2022-07-23T01:32:29;21.88;;;14.35;;
23578;SDS011;11967;50.852;4.400;2022-07-23T01:34:54;18.63;;;14.63;;
23578;SDS011;11967;50.852;4.400;2022-07-23T01:37:20;24.00;;;14.88;;
23578;SDS011;11967;50.852;4.400;2022-07-23T01:39:46;22.15;;;15.05;;
23578;SDS011;11967;50.852;4.400;2022-07-23T01:42:11;20.55;;;14.93;;
23578;SDS011;11967;50.852;4.400;2022-07-23T01:44:37;21.02;;;14.68;;
23578;SDS011;11967;50.852;4.400;2022-07-23T01:47:03;21.33;;;14.70;;
23578;SDS011;11967;50.852;4.400;2022-07-23T01:49:28;19.13;;;15.35;;
23578;SDS011;11967;50.852;4.400;2022-07-23T01:51:54;20.30;;;15.15;;
23578;SDS011;11967;50.852;4.400;2022-07-23T01:54:26;18.83;;;13.73;;
23578;SDS011;11967;50.852;4.400;2022-07-23T01:56:53;19.27;;;14.63;;
23578;SDS011;11967;50.852;4.400;2022-07-23T01:59:20;19.05;;;14.32;;
23578;SDS011;11967;50.852;4.400;2022-07-23T02:01:46;18.42;;;13.90;;
23578;SDS011;11967;50.852;4.400;2022-07-23T02:04:12;20.02;;;14.65;;
23578;SDS011;11967;50.852;4.400;2022-07-23T02:06:38;20.73;;;15.20;;
23578;SDS011;11967;50.852;4.400;2022-07-23T02:09:04;20.60;;;13.50;;
23578;SDS011;11967;50.852;4.400;2022-07-23T02:11:29;18.25;;;13.27;;
23578;SDS011;11967;50.852;4.400;2022-07-23T02:13:55;19.05;;;13.82;;
23578;SDS011;11967;50.852;4.400;2022-07-23T02:16:21;17.02;;;13.93;;
23578;SDS011;11967;50.852;4.400;2022-07-23T02:18:46;17.65;;;13.35;;
23578;SDS011;11967;50.852;4.400;2022-07-23T02:21:12;20.65;;;12.82;;
23578;SDS011;11967;50.852;4.400;2022-07-23T02:23:38;17.77;;;13.25;;
23578;SDS011;11967;50.852;4.400;2022-07-23T02:26:03;20.33;;;13.93;;
23578;SDS011;11967;50.852;4.400;2022-07-23T02:28:29;19.90;;;14.38;;
23578;SDS011;11967;50.852;4.400;2022-07-23T02:30:55;17.38;;;13.48;;
23578;SDS011;11967;50.852;4.400;2022-07-23T02:33:20;17.67;;;13.77;;
23578;SDS011;11967;50.852;4.400;2022-07-23T02:35:46;24.85;;;13.88;;
23578;SDS011;11967;50.852;4.400;2022-07-23T02:38:12;18.52;;;14.00;;
23578;SDS011;11967;50.852;4.400;2022-07-23T02:40:37;19.35;;;13.23;;
23578;SDS011;11967;50.852;4.400;2022-07-23T02:43:03;19.55;;;14.00;;
23578;SDS011;11967;50.852;4.400;2022-07-23T02:45:29;18.88;;;13.48;;
23578;SDS011;11967;50.852;4.400;2022-07-23T02:47:55;18.40;;;13.55;;
23578;SDS011;11967;50.852;4.400;2022-07-23T02:50:20;21.17;;;13.80;;
23578;SDS011;11967;50.852;4.400;2022-07-23T02:52:46;21.55;;;14.05;;
23578;SDS011;11967;50.852;4.400;2022-07-23T02:55:12;18.45;;;13.02;;
23578;SDS011;11967;50.852;4.400;2022-07-23T02:57:37;20.63;;;14.05;;
23578;SDS011;11967;50.852;4.400;2022-07-23T03:00:03;19.17;;;14.00;;
23578;SDS011;11967;50.852;4.400;2022-07-23T03:02:31;21.10;;;14.48;;
23578;SDS011;11967;50.852;4.400;2022-07-23T03:04:56;19.63;;;14.35;;
23578;SDS011;11967;50.852;4.400;2022-07-23T03:07:22;22.13;;;13.20;;
23578;SDS011;11967;50.852;4.400;2022-07-23T03:09:48;20.40;;;13.90;;
23578;SDS011;11967;50.852;4.400;2022-07-23T03:12:13;21.33;;;14.23;;
23578;SDS011;11967;50.852;4.400;2022-07-23T03:14:39;22.02;;;13.70;;
23578;SDS011;11967;50.852;4.400;2022-07-23T03:17:05;18.23;;;13.63;;
23578;SDS011;11967;50.852;4.400;2022-07-23T03:19:31;21.70;;;13.23;;
23578;SDS011;11967;50.852;4.400;2022-07-23T03:21:57;21.45;;;13.77;;
23578;SDS011;11967;50.852;4.400;2022-07-23T03:24:23;18.40;;;13.82;;
23578;SDS011;11967;50.852;4.400;2022-07-23T03:27:09;22.02;;;13.88;;
23578;SDS011;11967;50.852;4.400;2022-07-23T03:29:35;19.88;;;13.43;;
23578;SDS011;11967;50.852;4.400;2022-07-23T03:32:02;19.08;;;13.60;;
23578;SDS011;11967;50.852;4.400;2022-07-23T03:34:28;19.58;;;13.45;;
23578;SDS011;11967;50.852;4.400;2022-07-23T03:36:54;15.82;;;13.68;;
23578;SDS011;11967;50.852;4.400;2022-07-23T03:39:19;20.50;;;14.10;;
23578;SDS011;11967;50.852;4.400;2022-07-23T03:41:45;18.35;;;13.63;;
23578;SDS011;11967;50.852;4.400;2022-07-23T03:44:10;18.27;;;13.73;;
23578;SDS011;11967;50.852;4.400;2022-07-23T03:46:36;20.73;;;13.73;;
23578;SDS011;11967;50.852;4.400;2022-07-23T03:49:02;18.42;;;14.23;;
23578;SDS011;11967;50.852;4.400;2022-07-23T03:51:27;19.27;;;15.10;;
23578;SDS011;11967;50.852;4.400;2022-07-23T03:53:53;18.50;;;13.30;;
23578;SDS011;11967;50.852;4.400;2022-07-23T03:56:20;19.10;;;13.98;;
23578;SDS011;11967;50.852;4.400;2022-07-23T03:58:46;20.45;;;14.90;;
23578;SDS011;11967;50.852;4.400;2022-07-23T04:01:12;19.02;;;14.60;;
23578;SDS011;11967;50.852;4.400;2022-07-23T04:03:37;20.35;;;13.32;;
23578;SDS011;11967;50.852;4.400;2022-07-23T04:06:03;17.65;;;13.63;;
23578;SDS011;11967;50.852;4.400;2022-07-23T04:08:29;19.40;;;14.52;;
23578;SDS011;11967;50.852;4.400;2022-07-23T04:10:55;18.08;;;14.18;;
23578;SDS011;11967;50.852;4.400;2022-07-23T04:13:21;22.23;;;14.43;;
23578;SDS011;11967;50.852;4.400;2022-07-23T04:15:46;18.13;;;14.40;;
23578;SDS011;11967;50.852;4.400;2022-07-23T04:18:12;21.95;;;14.55;;
23578;SDS011;11967;50.852;4.400;2022-07-23T04:20:38;21.33;;;14.23;;
23578;SDS011;11967;50.852;4.400;2022-07-23T04:23:04;24.70;;;14.48;;
23578;SDS011;11967;50.852;4.400;2022-07-23T04:25:29;21.58;;;14.25;;
23578;SDS011;11967;50.852;4.400;2022-07-23T04:27:55;21.30;;;14.23;;
23578;SDS011;11967;50.852;4.400;2022-07-23T04:30:20;20.65;;;14.20;;
23578;SDS011;11967;50.852;4.400;2022-07-23T04:32:46;17.27;;;13.13;;
23578;SDS011;11967;50.852;4.400;2022-07-23T04:35:12;22.10;;;13.70;;
23578;SDS011;11967;50.852;4.400;2022-07-23T04:37:37;21.90;;;13.35;;
23578;SDS011;11967;50.852;4.400;2022-07-23T04:40:03;17.48;;;13.18;;
23578;SDS011;11967;50.852;4.400;2022-07-23T04:42:31;20.27;;;13.25;;
23578;SDS011;11967;50.852;4.400;2022-07-23T04:44:57;17.45;;;12.50;;
23578;SDS011;11967;50.852;4.400;2022-07-23T04:47:23;19.92;;;12.23;;
23578;SDS011;11967;50.852;4.400;2022-07-23T04:49:49;17.10;;;11.98;;
23578;SDS011;11967;50.852;4.400;2022-07-23T04:52:15;15.35;;;12.60;;
23578;SDS011;11967;50.852;4.400;2022-07-23T04:54:40;16.35;;;12.23;;
23578;SDS011;11967;50.852;4.400;2022-07-23T04:57:06;16.58;;;12.48;;
23578;SDS011;11967;50.852;4.400;2022-07-23T04:59:31;15.85;;;12.15;;
23578;SDS011;11967;50.852;4.400;2022-07-23T05:01:57;15.27;;;11.27;;
23578;SDS011;11967;50.852;4.400;2022-07-23T05:04:23;17.33;;;12.73;;
23578;SDS011;11967;50.852;4.400;2022-07-23T05:06:48;18.83;;;13.23;;
23578;SDS011;11967;50.852;4.400;2022-07-23T05:09:14;17.55;;;13.30;;
23578;SDS011;11967;50.852;4.400;2022-07-23T05:11:39;16.52;;;12.40;;
23578;SDS011;11967;50.852;4.400;2022-07-23T05:14:05;17.10;;;12.90;;
23578;SDS011;11967;50.852;4.400;2022-07-23T05:16:31;21.83;;;13.23;;
23578;SDS011;11967;50.852;4.400;2022-07-23T05:18:57;18.67;;;13.25;;
23578;SDS011;11967;50.852;4.400;2022-07-23T05:21:22;18.35;;;12.48;;
23578;SDS011;11967;50.852;4.400;2022-07-23T05:23:48;21.38;;;12.68;;
23578;SDS011;11967;50.852;4.400;2022-07-23T05:26:14;14.40;;;11.52;;
23578;SDS011;11967;50.852;4.400;2022-07-23T05:28:39;15.88;;;11.82;;
23578;SDS011;11967;50.852;4.400;2022-07-23T05:31:05;18.75;;;12.25;;
23578;SDS011;11967;50.852;4.400;2022-07-23T05:33:31;15.93;;;12.50;;
23578;SDS011;11967;50.852;4.400;2022-07-23T05:36:00;19.63;;;12.63;;
23578;SDS011;11967;50.852;4.400;2022-07-23T05:38:26;22.02;;;13.35;;
23578;SDS011;11967;50.852;4.400;2022-07-23T05:40:52;18.35;;;12.13;;
23578;SDS011;11967;50.852;4.400;2022-07-23T05:43:18;19.27;;;12.93;;
23578;SDS011;11967;50.852;4.400;2022-07-23T05:45:43;17.17;;;12.38;;
23578;SDS011;11967;50.852;4.400;2022-07-23T05:48:09;16.55;;;12.05;;
23578;SDS011;11967;50.852;4.400;2022-07-23T05:50:34;16.58;;;12.05;;
23578;SDS011;11967;50.852;4.400;2022-07-23T05:53:00;19.83;;;12.77;;
23578;SDS011;11967;50.852;4.400;2022-07-23T05:55:26;15.60;;;12.25;;
23578;SDS011;11967;50.852;4.400;2022-07-23T05:57:54;19.38;;;12.80;;
23578;SDS011;11967;50.852;4.400;2022-07-23T06:00:20;19.17;;;13.00;;
23578;SDS011;11967;50.852;4.400;2022-07-23T06:02:46;18.92;;;11.55;;
23578;SDS011;11967;50.852;4.400;2022-07-23T06:05:11;17.08;;;12.05;;
23578;SDS011;11967;50.852;4.400;2022-07-23T06:07:37;19.13;;;12.32;;
23578;SDS011;11967;50.852;4.400;2022-07-23T06:10:03;17.80;;;12.23;;
23578;SDS011;11967;50.852;4.400;2022-07-23T06:12:29;16.92;;;11.88;;
23578;SDS011;11967;50.852;4.400;2022-07-23T06:14:55;16.38;;;12.07;;
23578;SDS011;11967;50.852;4.400;2022-07-23T06:17:21;16.60;;;12.30;;
23578;SDS011;11967;50.852;4.400;2022-07-23T06:19:46;15.30;;;12.13;;
23578;SDS011;11967;50.852;4.400;2022-07-23T06:22:12;21.27;;;12.23;;
23578;SDS011;11967;50.852;4.400;2022-07-23T06:24:37;18.73;;;12.43;;
23578;SDS011;11967;50.852;4.400;2022-07-23T06:27:03;19.73;;;12.45;;
23578;SDS011;11967;50.852;4.400;2022-07-23T06:29:30;19.13;;;13.20;;
23578;SDS011;11967;50.852;4.400;2022-07-23T06:31:56;21.02;;;13.35;;
23578;SDS011;11967;50.852;4.400;2022-07-23T06:34:21;22.02;;;13.50;;
23578;SDS011;11967;50.852;4.400;2022-07-23T06:36:47;21.52;;;13.18;;
23578;SDS011;11967;50.852;4.400;2022-07-23T06:39:12;17.70;;;12.40;;
23578;SDS011;11967;50.852;4.400;2022-07-23T06:41:38;19.52;;;13.50;;
23578;SDS011;11967;50.852;4.400;2022-07-23T06:44:04;17.63;;;12.75;;
23578;SDS011;11967;50.852;4.400;2022-07-23T06:46:30;22.58;;;13.25;;
23578;SDS011;11967;50.852;4.400;2022-07-23T06:48:56;19.73;;;13.63;;
23578;SDS011;11967;50.852;4.400;2022-07-23T06:51:21;17.00;;;11.60;;
23578;SDS011;11967;50.852;4.400;2022-07-23T06:53:47;16.13;;;12.13;;
23578;SDS011;11967;50.852;4.400;2022-07-23T06:56:12;19.40;;;12.35;;
23578;SDS011;11967;50.852;4.400;2022-07-23T06:58:38;20.77;;;12.80;;
23578;SDS011;11967;50.852;4.400;2022-07-23T07:01:04;17.48;;;12.10;;
23578;SDS011;11967;50.852;4.400;2022-07-23T07:03:29;16.80;;;11.15;;
23578;SDS011;11967;50.852;4.400;2022-07-23T07:05:55;17.17;;;12.38;;
23578;SDS011;11967;50.852;4.400;2022-07-23T07:08:22;19.13;;;11.80;;
23578;SDS011;11967;50.852;4.400;2022-07-23T07:10:48;18.27;;;11.00;;
23578;SDS011;11967;50.852;4.400;2022-07-23T07:13:14;15.15;;;10.10;;
23578;SDS011;11967;50.852;4.400;2022-07-23T07:15:48;16.42;;;10.32;;
23578;SDS011;11967;50.852;4.400;2022-07-23T07:18:14;14.75;;;9.98;;
23578;SDS011;11967;50.852;4.400;2022-07-23T07:20:40;14.57;;;10.20;;
23578;SDS011;11967;50.852;4.400;2022-07-23T07:23:05;16.80;;;9.63;;
23578;SDS011;11967;50.852;4.400;2022-07-23T07:25:31;14.32;;;9.48;;
23578;SDS011;11967;50.852;4.400;2022-07-23T07:27:57;21.45;;;9.93;;
23578;SDS011;11967;50.852;4.400;2022-07-23T07:30:22;16.75;;;11.15;;
23578;SDS011;11967;50.852;4.400;2022-07-23T07:32:48;6.10;;;4.32;;
23578;SDS011;11967;50.852;4.400;2022-07-23T07:35:14;8.88;;;4.57;;
23578;SDS011;11967;50.852;4.400;2022-07-23T07:37:39;14.57;;;8.55;;
23578;SDS011;11967;50.852;4.400;2022-07-23T07:40:05;9.98;;;6.18;;
23578;SDS011;11967;50.852;4.400;2022-07-23T07:42:31;9.95;;;6.28;;
23578;SDS011;11967;50.852;4.400;2022-07-23T07:44:57;13.85;;;10.07;;
23578;SDS011;11967;50.852;4.400;2022-07-23T07:47:23;8.00;;;4.65;;
23578;SDS011;11967;50.852;4.400;2022-07-23T07:49:48;7.88;;;4.80;;
23578;SDS011;11967;50.852;4.400;2022-07-23T07:52:14;7.93;;;5.25;;
23578;SDS011;11967;50.852;4.400;2022-07-23T07:54:40;15.77;;;8.80;;
23578;SDS011;11967;50.852;4.400;2022-07-23T07:57:06;7.18;;;5.00;;
23578;SDS011;11967;50.852;4.400;2022-07-23T07:59:31;8.73;;;4.57;;
23578;SDS011;11967;50.852;4.400;2022-07-23T08:01:57;13.70;;;10.00;;
23578;SDS011;11967;50.852;4.400;2022-07-23T08:04:23;7.68;;;4.70;;
23578;SDS011;11967;50.852;4.400;2022-07-23T08:06:50;8.80;;;4.80;;
23578;SDS011;11967;50.852;4.400;2022-07-23T08:09:15;8.52;;;6.07;;
23578;SDS011;11967;50.852;4.400;2022-07-23T08:11:41;6.45;;;4.35;;
23578;SDS011;11967;50.852;4.400;2022-07-23T08:14:07;9.02;;;5.00;;
23578;SDS011;11967;50.852;4.400;2022-07-23T08:16:33;6.68;;;4.85;;
23578;SDS011;11967;50.852;4.400;2022-07-23T08:19:00;8.25;;;4.25;;
23578;SDS011;11967;50.852;4.400;2022-07-23T08:21:26;10.38;;;4.65;;
23578;SDS011;11967;50.852;4.400;2022-07-23T08:23:51;10.48;;;4.20;;
23578;SDS011;11967;50.852;4.400;2022-07-23T08:26:17;7.82;;;4.00;;
23578;SDS011;11967;50.852;4.400;2022-07-23T08:28:43;8.57;;;4.68;;
23578;SDS011;11967;50.852;4.400;2022-07-23T08:31:08;6.15;;;3.97;;
23578;SDS011;11967;50.852;4.400;2022-07-23T08:33:36;13.32;;;6.80;;
23578;SDS011;11967;50.852;4.400;2022-07-23T08:36:03;6.35;;;3.55;;
23578;SDS011;11967;50.852;4.400;2022-07-23T08:38:29;8.13;;;4.75;;
23578;SDS011;11967;50.852;4.400;2022-07-23T08:40:55;10.40;;;4.07;;
23578;SDS011;11967;50.852;4.400;2022-07-23T08:43:28;9.18;;;5.68;;
23578;SDS011;11967;50.852;4.400;2022-07-23T08:45:55;7.82;;;5.18;;
23578;SDS011;11967;50.852;4.400;2022-07-23T08:48:24;7.78;;;3.67;;
23578;SDS011;11967;50.852;4.400;2022-07-23T08:50:52;6.80;;;3.40;;
23578;SDS011;11967;50.852;4.400;2022-07-23T08:53:22;5.97;;;3.35;;
23578;SDS011;11967;50.852;4.400;2022-07-23T08:55:51;8.38;;;4.80;;
23578;SDS011;11967;50.852;4.400;2022-07-23T08:58:23;11.27;;;6.50;;
23578;SDS011;11967;50.852;4.400;2022-07-23T09:00:49;9.75;;;6.40;;
23578;SDS011;11967;50.852;4.400;2022-07-23T09:03:18;6.30;;;3.17;;
23578;SDS011;11967;50.852;4.400;2022-07-23T09:05:45;7.18;;;4.40;;
23578;SDS011;11967;50.852;4.400;2022-07-23T09:08:21;7.30;;;3.45;;
23578;SDS011;11967;50.852;4.400;2022-07-23T09:10:52;9.70;;;4.35;;
23578;SDS011;11967;50.852;4.400;2022-07-23T09:13:32;11.65;;;5.53;;
23578;SDS011;11967;50.852;4.400;2022-07-23T09:16:09;12.20;;;5.78;;
23578;SDS011;11967;50.852;4.400;2022-07-23T09:18:39;6.47;;;3.50;;
23578;SDS011;11967;50.852;4.400;2022-07-23T09:21:19;6.32;;;3.25;;
23578;SDS011;11967;50.852;4.400;2022-07-23T09:23:46;7.68;;;5.82;;
23578;SDS011;11967;50.852;4.400;2022-07-23T09:29:00;7.38;;;5.18;;
23578;SDS011;11967;50.852;4.400;2022-07-23T09:34:09;7.20;;;3.92;;
23578;SDS011;11967;50.852;4.400;2022-07-23T09:36:40;4.93;;;3.58;;
23578;SDS011;11967;50.852;4.400;2022-07-23T09:39:06;5.97;;;3.75;;
23578;SDS011;11967;50.852;4.400;2022-07-23T09:41:34;6.18;;;3.90;;
23578;SDS011;11967;50.852;4.400;2022-07-23T09:44:06;5.82;;;3.55;;
23578;SDS011;11967;50.852;4.400;2022-07-23T09:46:34;6.30;;;3.72;;
23578;SDS011;11967;50.852;4.400;2022-07-23T09:49:12;6.50;;;2.97;;
23578;SDS011;11967;50.852;4.400;2022-07-23T09:51:47;11.15;;;4.90;;
23578;SDS011;11967;50.852;4.400;2022-07-23T09:54:31;7.63;;;4.18;;
23578;SDS011;11967;50.852;4.400;2022-07-23T09:57:05;11.38;;;3.90;;
23578;SDS011;11967;50.852;4.400;2022-07-23T09:59:38;5.32;;;3.70;;
23578;SDS011;11967;50.852;4.400;2022-07-23T10:02:06;5.47;;;3.33;;
23578;SDS011;11967;50.852;4.400;2022-07-23T10:04:33;4.75;;;3.20;;
23578;SDS011;11967;50.852;4.400;2022-07-23T10:07:01;5.45;;;3.70;;
23578;SDS011;11967;50.852;4.400;2022-07-23T10:09:31;9.40;;;4.43;;
23578;SDS011;11967;50.852;4.400;2022-07-23T10:11:59;6.40;;;4.00;;
23578;SDS011;11967;50.852;4.400;2022-07-23T10:14:39;8.57;;;4.13;;
23578;SDS011;11967;50.852;4.400;2022-07-23T10:17:05;6.88;;;3.80;;
23578;SDS011;11967;50.852;4.400;2022-07-23T10:19:32;5.28;;;3.58;;
23578;SDS011;11967;50.852;4.400;2022-07-23T10:22:06;5.40;;;3.63;;
23578;SDS011;11967;50.852;4.400;2022-07-23T10:29:52;7.13;;;4.30;;
23578;SDS011;11967;50.852;4.400;2022-07-23T10:32:27;9.77;;;3.60;;
23578;SDS011;11967;50.852;4.400;2022-07-23T10:38:25;6.75;;;3.88;;
23578;SDS011;11967;50.852;4.400;2022-07-23T10:41:02;8.60;;;3.67;;
23578;SDS011;11967;50.852;4.400;2022-07-23T10:43:30;5.80;;;3.15;;
23578;SDS011;11967;50.852;4.400;2022-07-23T10:49:43;6.78;;;3.17;;
23578;SDS011;11967;50.852;4.400;2022-07-23T10:54:38;6.00;;;3.50;;
23578;SDS011;11967;50.852;4.400;2022-07-23T10:57:07;4.93;;;2.92;;
23578;SDS011;11967;50.852;4.400;2022-07-23T11:02:37;6.03;;;2.93;;
23578;SDS011;11967;50.852;4.400;2022-07-23T11:05:08;5.82;;;3.13;;
23578;SDS011;11967;50.852;4.400;2022-07-23T11:10:35;5.57;;;3.35;;
23578;SDS011;11967;50.852;4.400;2022-07-23T11:23:57;9.18;;;4.10;;
23578;SDS011;11967;50.852;4.400;2022-07-23T11:34:30;5.25;;;2.92;;
23578;SDS011;11967;50.852;4.400;2022-07-23T11:37:07;6.80;;;3.10;;
23578;SDS011;11967;50.852;4.400;2022-07-23T11:39:37;6.97;;;3.53;;
23578;SDS011;11967;50.852;4.400;2022-07-23T11:42:06;6.30;;;4.07;;
23578;SDS011;11967;50.852;4.400;2022-07-23T11:44:33;7.10;;;3.33;;
23578;SDS011;11967;50.852;4.400;2022-07-23T11:47:07;7.45;;;4.32;;
23578;SDS011;11967;50.852;4.400;2022-07-23T11:49:34;7.20;;;4.25;;
23578;SDS011;11967;50.852;4.400;2022-07-23T11:52:08;6.13;;;3.78;;
23578;SDS011;11967;50.852;4.400;2022-07-23T11:54:35;8.65;;;4.53;;
23578;SDS011;11967;50.852;4.400;2022-07-23T11:57:11;5.85;;;4.13;;
23578;SDS011;11967;50.852;4.400;2022-07-23T11:59:37;5.40;;;3.53;;
23578;SDS011;11967;50.852;4.400;2022-07-23T12:02:04;6.30;;;4.38;;
23578;SDS011;11967;50.852;4.400;2022-07-23T12:04:41;10.52;;;4.45;;
23578;SDS011;11967;50.852;4.400;2022-07-23T12:12:58;5.57;;;3.60;;
23578;SDS011;11967;50.852;4.400;2022-07-23T12:15:37;6.53;;;4.22;;
23578;SDS011;11967;50.852;4.400;2022-07-23T12:18:06;7.20;;;5.00;;
23578;SDS011;11967;50.852;4.400;2022-07-23T12:20:34;8.38;;;5.50;;
23578;SDS011;11967;50.852;4.400;2022-07-23T12:23:02;8.95;;;5.97;;
23578;SDS011;11967;50.852;4.400;2022-07-23T12:25:30;7.22;;;4.45;;
23578;SDS011;11967;50.852;4.400;2022-07-23T12:28:19;6.65;;;4.18;;
23578;SDS011;11967;50.852;4.400;2022-07-23T12:33:25;6.78;;;5.10;;
23578;SDS011;11967;50.852;4.400;2022-07-23T12:36:08;7.72;;;3.88;;
23578;SDS011;11967;50.852;4.400;2022-07-23T12:38:37;5.70;;;4.00;;
23578;SDS011;11967;50.852;4.400;2022-07-23T12:41:09;6.55;;;4.78;;
23578;SDS011;11967;50.852;4.400;2022-07-23T12:43:36;6.47;;;4.38;;
23578;SDS011;11967;50.852;4.400;2022-07-23T12:46:14;6.53;;;4.00;;
23578;SDS011;11967;50.852;4.400;2022-07-23T12:53:47;10.63;;;4.70;;
23578;SDS011;11967;50.852;4.400;2022-07-23T12:56:20;8.80;;;4.88;;
23578;SDS011;11967;50.852;4.400;2022-07-23T12:58:58;6.40;;;4.20;;
23578;SDS011;11967;50.852;4.400;2022-07-23T13:01:36;7.35;;;4.50;;
23578;SDS011;11967;50.852;4.400;2022-07-23T13:04:10;5.60;;;3.90;;
23578;SDS011;11967;50.852;4.400;2022-07-23T13:06:44;6.05;;;4.07;;
23578;SDS011;11967;50.852;4.400;2022-07-23T13:09:26;8.73;;;4.30;;
23578;SDS011;11967;50.852;4.400;2022-07-23T13:14:23;6.75;;;3.90;;
23578;SDS011;11967;50.852;4.400;2022-07-23T13:16:50;9.82;;;5.00;;
23578;SDS011;11967;50.852;4.400;2022-07-23T13:19:18;11.80;;;5.88;;
23578;SDS011;11967;50.852;4.400;2022-07-23T13:21:45;6.85;;;4.60;;
23578;SDS011;11967;50.852;4.400;2022-07-23T13:24:11;6.75;;;3.90;;
23578;SDS011;11967;50.852;4.400;2022-07-23T13:26:38;6.75;;;4.45;;
23578;SDS011;11967;50.852;4.400;2022-07-23T13:29:05;10.13;;;5.53;;
23578;SDS011;11967;50.852;4.400;2022-07-23T13:31:31;8.63;;;4.95;;
23578;SDS011;11967;50.852;4.400;2022-07-23T13:33:58;9.13;;;4.97;;
23578;SDS011;11967;50.852;4.400;2022-07-23T13:36:24;10.30;;;6.72;;
23578;SDS011;11967;50.852;4.400;2022-07-23T13:38:50;9.75;;;6.22;;
23578;SDS011;11967;50.852;4.400;2022-07-23T13:41:19;6.50;;;5.28;;
23578;SDS011;11967;50.852;4.400;2022-07-23T13:43:53;10.23;;;5.28;;
23578;SDS011;11967;50.852;4.400;2022-07-23T13:46:19;9.15;;;4.50;;
23578;SDS011;11967;50.852;4.400;2022-07-23T13:48:45;7.88;;;5.07;;
23578;SDS011;11967;50.852;4.400;2022-07-23T13:51:11;7.57;;;5.30;;
23578;SDS011;11967;50.852;4.400;2022-07-23T13:53:38;8.48;;;5.32;;
23578;SDS011;11967;50.852;4.400;2022-07-23T13:56:05;11.88;;;5.63;;
23578;SDS011;11967;50.852;4.400;2022-07-23T13:58:31;7.53;;;5.43;;
23578;SDS011;11967;50.852;4.400;2022-07-23T14:00:56;8.93;;;4.55;;
23578;SDS011;11967;50.852;4.400;2022-07-23T14:03:23;8.68;;;4.30;;
23578;SDS011;11967;50.852;4.400;2022-07-23T14:05:49;7.53;;;4.72;;
23578;SDS011;11967;50.852;4.400;2022-07-23T14:08:15;7.82;;;4.50;;
23578;SDS011;11967;50.852;4.400;2022-07-23T14:10:41;5.72;;;4.57;;
23578;SDS011;11967;50.852;4.400;2022-07-23T14:13:07;10.35;;;5.53;;
23578;SDS011;11967;50.852;4.400;2022-07-23T14:15:32;8.35;;;4.70;;
23578;SDS011;11967;50.852;4.400;2022-07-23T14:17:59;7.20;;;4.50;;
23578;SDS011;11967;50.852;4.400;2022-07-23T14:20:25;7.47;;;4.45;;
23578;SDS011;11967;50.852;4.400;2022-07-23T14:22:51;5.70;;;4.20;;
23578;SDS011;11967;50.852;4.400;2022-07-23T14:25:17;7.43;;;4.00;;
23578;SDS011;11967;50.852;4.400;2022-07-23T14:27:43;6.00;;;4.40;;
23578;SDS011;11967;50.852;4.400;2022-07-23T14:30:10;8.38;;;4.70;;
23578;SDS011;11967;50.852;4.400;2022-07-23T14:32:38;9.10;;;4.78;;
23578;SDS011;11967;50.852;4.400;2022-07-23T14:35:04;8.07;;;5.03;;
23578;SDS011;11967;50.852;4.400;2022-07-23T14:37:32;6.70;;;4.43;;
23578;SDS011;11967;50.852;4.400;2022-07-23T14:39:58;11.68;;;4.47;;
23578;SDS011;11967;50.852;4.400;2022-07-23T14:42:24;10.88;;;4.90;;
23578;SDS011;11967;50.852;4.400;2022-07-23T14:44:50;8.13;;;4.43;;
23578;SDS011;11967;50.852;4.400;2022-07-23T14:47:15;8.10;;;4.53;;
23578;SDS011;11967;50.852;4.400;2022-07-23T14:49:44;7.65;;;4.45;;
23578;SDS011;11967;50.852;4.400;2022-07-23T14:52:10;6.38;;;4.15;;
23578;SDS011;11967;50.852;4.400;2022-07-23T14:54:36;8.30;;;4.50;;
23578;SDS011;11967;50.852;4.400;2022-07-23T14:57:03;7.57;;;4.80;;
23578;SDS011;11967;50.852;4.400;2022-07-23T14:59:30;7.60;;;5.00;;
23578;SDS011;11967;50.852;4.400;2022-07-23T15:01:57;6.60;;;4.68;;
23578;SDS011;11967;50.852;4.400;2022-07-23T15:04:23;10.40;;;6.00;;
23578;SDS011;11967;50.852;4.400;2022-07-23T15:06:49;8.48;;;5.20;;
23578;SDS011;11967;50.852;4.400;2022-07-23T15:09:15;8.95;;;5.20;;
23578;SDS011;11967;50.852;4.400;2022-07-23T15:11:41;7.55;;;5.25;;
23578;SDS011;11967;50.852;4.400;2022-07-23T15:14:07;7.88;;;5.15;;
23578;SDS011;11967;50.852;4.400;2022-07-23T15:16:39;9.27;;;5.35;;
23578;SDS011;11967;50.852;4.400;2022-07-23T15:19:06;6.60;;;5.50;;
23578;SDS011;11967;50.852;4.400;2022-07-23T15:21:33;6.70;;;4.78;;
23578;SDS011;11967;50.852;4.400;2022-07-23T15:24:00;8.38;;;5.13;;
23578;SDS011;11967;50.852;4.400;2022-07-23T15:26:29;9.07;;;4.85;;
23578;SDS011;11967;50.852;4.400;2022-07-23T15:28:58;7.45;;;5.18;;
23578;SDS011;11967;50.852;4.400;2022-07-23T15:31:27;6.68;;;4.70;;
23578;SDS011;11967;50.852;4.400;2022-07-23T15:33:56;9.90;;;5.00;;
23578;SDS011;11967;50.852;4.400;2022-07-23T15:36:25;11.05;;;5.22;;